createdAt,value
2023-04-11T00:01:54.754Z,4.40
2023-04-11T00:04:22.841Z,4.10
2023-04-11T00:06:49.815Z,4.50
2023-04-11T00:09:17.096Z,4.67
2023-04-11T00:11:44.021Z,4.50
2023-04-11T00:14:12.369Z,4.00
2023-04-11T00:16:39.673Z,4.40
2023-04-11T00:19:07.390Z,5.07
2023-04-11T00:21:35.595Z,4.70
2023-04-11T00:24:02.327Z,4.77
2023-04-11T00:26:29.025Z,4.60
2023-04-11T00:28:56.120Z,4.20
2023-04-11T00:31:23.146Z,4.60
2023-04-11T00:33:50.187Z,3.93
2023-04-11T00:36:17.139Z,4.53
2023-04-11T00:38:44.786Z,4.70
2023-04-11T00:41:11.771Z,4.27
2023-04-11T00:43:38.548Z,4.73
2023-04-11T00:46:06.361Z,4.10
2023-04-11T00:48:33.345Z,4.53
2023-04-11T00:51:00.663Z,5.00
2023-04-11T00:53:32.465Z,5.50
2023-04-11T00:56:02.479Z,5.17
2023-04-11T00:58:29.587Z,5.30
2023-04-11T01:00:56.300Z,4.90
2023-04-11T01:03:23.706Z,5.07
2023-04-11T01:05:54.599Z,4.80
2023-04-11T01:08:22.574Z,4.80
2023-04-11T01:10:49.527Z,4.47
2023-04-11T01:13:16.402Z,4.20
2023-04-11T01:15:43.140Z,3.30
2023-04-11T01:18:10.222Z,3.47
2023-04-11T01:20:38.540Z,3.33
2023-04-11T01:23:06.337Z,4.67
2023-04-11T01:25:33.172Z,4.10
2023-04-11T01:27:59.991Z,3.80
2023-04-11T01:30:26.781Z,3.77
2023-04-11T01:32:53.623Z,3.80
2023-04-11T01:35:20.650Z,3.47
2023-04-11T01:37:47.601Z,4.10
2023-04-11T01:40:17.925Z,3.60
2023-04-11T01:42:45.768Z,3.37
2023-04-11T01:45:13.182Z,3.37
2023-04-11T01:47:40.196Z,2.80
2023-04-11T01:50:07.748Z,3.20
2023-04-11T01:52:34.453Z,3.30
2023-04-11T01:55:01.242Z,3.70
2023-04-11T01:57:28.016Z,3.47
2023-04-11T01:59:54.723Z,3.27
2023-04-11T02:02:21.593Z,3.07
2023-04-11T02:04:48.284Z,3.60
2023-04-11T02:07:15.001Z,3.90
2023-04-11T02:09:41.702Z,3.60
2023-04-11T02:12:08.606Z,3.30
2023-04-11T02:14:43.122Z,3.00
2023-04-11T02:17:10.783Z,3.30
2023-04-11T02:19:41.095Z,3.50
2023-04-11T02:22:11.396Z,2.90
2023-04-11T02:24:38.648Z,3.10
2023-04-11T02:27:06.132Z,3.17
2023-04-11T02:29:33.310Z,4.10
2023-04-11T02:32:00.485Z,4.17
2023-04-11T02:34:27.511Z,3.93
2023-04-11T02:36:54.314Z,4.40
2023-04-11T02:39:24.253Z,3.67
2023-04-11T02:41:51.277Z,3.23
2023-04-11T02:44:18.950Z,3.67
2023-04-11T02:46:45.728Z,4.03
2023-04-11T02:49:12.512Z,3.33
2023-04-11T02:51:39.233Z,3.10
2023-04-11T02:54:06.241Z,2.83
2023-04-11T02:56:34.955Z,2.73
2023-04-11T02:59:01.756Z,2.33
2023-04-11T03:01:29.266Z,2.77
2023-04-11T03:03:56.044Z,2.10
2023-04-11T03:06:23.247Z,2.10
2023-04-11T03:08:50.316Z,2.47
2023-04-11T03:11:17.134Z,2.77
2023-04-11T03:13:44.000Z,2.27
2023-04-11T03:16:13.645Z,2.70
2023-04-11T03:18:40.838Z,2.53
2023-04-11T03:21:10.374Z,2.60
2023-04-11T03:23:38.306Z,2.80
2023-04-11T03:26:06.600Z,3.33
2023-04-11T03:28:33.551Z,2.10
2023-04-11T03:31:00.541Z,2.80
2023-04-11T03:33:27.375Z,2.83
2023-04-11T03:35:54.375Z,2.43
2023-04-11T03:38:21.339Z,2.83
2023-04-11T03:40:48.393Z,2.67
2023-04-11T03:43:17.177Z,2.70
2023-04-11T03:45:43.985Z,2.20
2023-04-11T03:48:10.934Z,2.03
2023-04-11T03:50:38.434Z,1.60
2023-04-11T03:53:05.753Z,1.77
2023-04-11T03:55:32.504Z,1.57
2023-04-11T03:57:59.221Z,1.50
2023-04-11T04:00:26.605Z,1.20
2023-04-11T04:02:53.494Z,0.90
2023-04-11T04:05:20.512Z,1.30
2023-04-11T04:07:47.246Z,1.27
2023-04-11T04:10:14.116Z,1.00
2023-04-11T04:12:40.862Z,1.03
2023-04-11T04:15:08.271Z,0.90
2023-04-11T04:17:35.018Z,0.90
2023-04-11T04:20:01.912Z,1.10
2023-04-11T04:22:30.164Z,1.13
2023-04-11T04:24:58.255Z,1.20
2023-04-11T04:27:25.212Z,1.00
2023-04-11T04:30:01.868Z,1.10
2023-04-11T04:32:31.355Z,0.80
2023-04-11T04:34:58.795Z,0.90
2023-04-11T04:37:27.070Z,1.00
2023-04-11T04:39:55.534Z,0.90
2023-04-11T04:42:26.090Z,1.13
2023-04-11T04:44:54.158Z,0.93
2023-04-11T04:47:29.451Z,1.00
2023-04-11T04:49:56.513Z,1.30
2023-04-11T04:52:28.522Z,1.30
2023-04-11T04:54:59.783Z,1.37
2023-04-11T04:57:28.003Z,1.47
2023-04-11T04:59:55.806Z,1.20
2023-04-11T05:02:22.787Z,1.63
2023-04-11T05:04:50.318Z,1.20
2023-04-11T05:07:18.310Z,1.37
2023-04-11T05:09:45.323Z,1.20
2023-04-11T05:12:13.712Z,1.30
2023-04-11T05:14:40.742Z,1.17
2023-04-11T05:17:07.549Z,1.40
2023-04-11T05:19:34.395Z,1.37
2023-04-11T05:22:01.243Z,1.50
2023-04-11T05:24:28.000Z,1.50
2023-04-11T05:26:54.776Z,1.63
2023-04-11T05:29:21.529Z,1.83
2023-04-11T05:31:48.273Z,1.40
2023-04-11T05:34:15.373Z,1.37
2023-04-11T05:36:42.085Z,1.80
2023-04-11T05:39:08.853Z,1.67
2023-04-11T05:41:35.657Z,1.60
2023-04-11T05:44:02.405Z,1.30
2023-04-11T05:46:30.006Z,2.03
2023-04-11T05:48:58.055Z,1.53
2023-04-11T05:51:24.925Z,1.50
2023-04-11T05:53:51.729Z,1.20
2023-04-11T05:56:18.538Z,1.27
2023-04-11T05:58:45.305Z,1.30
2023-04-11T06:01:18.390Z,1.10
2023-04-11T06:03:46.351Z,0.90
2023-04-11T06:06:13.516Z,1.10
2023-04-11T06:08:40.584Z,1.10
2023-04-11T06:11:07.472Z,1.20
2023-04-11T06:13:34.297Z,1.10
2023-04-11T06:16:01.579Z,1.00
2023-04-11T06:18:28.454Z,1.10
2023-04-11T06:20:55.262Z,1.20
2023-04-11T06:23:22.009Z,1.07
2023-04-11T06:25:48.824Z,1.10
2023-04-11T06:28:15.737Z,1.20
2023-04-11T06:30:42.575Z,1.20
2023-04-11T06:33:09.394Z,1.40
2023-04-11T06:35:36.696Z,1.23
2023-04-11T06:38:03.407Z,1.10
2023-04-11T06:40:30.179Z,1.27
2023-04-11T06:42:58.629Z,1.50
2023-04-11T06:45:25.441Z,0.90
2023-04-11T06:47:52.277Z,1.30
2023-04-11T06:50:19.073Z,1.40
2023-04-11T06:52:46.169Z,1.17
2023-04-11T06:55:15.387Z,1.60
2023-04-11T06:57:43.619Z,1.57
2023-04-11T07:00:12.590Z,1.60
2023-04-11T07:02:39.747Z,1.20
2023-04-11T07:05:09.426Z,1.20
2023-04-11T07:07:36.566Z,1.40
2023-04-11T07:10:04.137Z,1.60
2023-04-11T07:12:31.157Z,1.60
2023-04-11T07:14:57.939Z,1.30
2023-04-11T07:17:24.696Z,1.27
2023-04-11T07:19:51.460Z,1.10
2023-04-11T07:22:18.778Z,1.40
2023-04-11T07:24:46.722Z,1.23
2023-04-11T07:27:14.358Z,1.90
2023-04-11T07:29:41.380Z,1.90
2023-04-11T07:32:08.346Z,1.50
2023-04-11T07:34:35.540Z,1.40
2023-04-11T07:37:02.374Z,1.33
2023-04-11T07:39:29.228Z,1.50
2023-04-11T07:41:56.852Z,1.57
2023-04-11T07:44:24.069Z,1.40
2023-04-11T07:46:51.171Z,1.10
2023-04-11T07:49:17.915Z,1.30
2023-04-11T07:51:44.631Z,1.40
2023-04-11T07:54:12.313Z,1.70
2023-04-11T07:56:39.085Z,1.40
2023-04-11T07:59:06.168Z,1.17
2023-04-11T08:01:32.938Z,1.50
2023-04-11T08:04:00.240Z,1.30
2023-04-11T08:06:29.271Z,1.53
2023-04-11T08:08:56.315Z,1.77
2023-04-11T08:11:23.148Z,1.90
2023-04-11T08:13:50.195Z,1.80
2023-04-11T08:16:17.159Z,1.37
2023-04-11T08:18:45.769Z,1.90
2023-04-11T08:21:12.739Z,1.50
2023-04-11T08:23:42.044Z,2.80
2023-04-11T08:26:09.675Z,3.03
2023-04-11T08:28:36.583Z,1.33
2023-04-11T08:31:05.220Z,1.60
2023-04-11T08:33:32.146Z,1.47
2023-04-11T08:35:58.921Z,1.70
2023-04-11T08:38:25.822Z,1.97
2023-04-11T08:40:53.041Z,2.37
2023-04-11T08:43:19.873Z,1.50
2023-04-11T08:45:46.839Z,1.77
2023-04-11T08:48:13.651Z,1.67
2023-04-11T08:50:42.340Z,1.20
2023-04-11T08:53:09.479Z,1.50
2023-04-11T08:55:44.831Z,2.00
2023-04-11T08:58:11.578Z,1.87
2023-04-11T09:00:38.417Z,1.40
2023-04-11T09:03:08.063Z,1.37
2023-04-11T09:05:40.273Z,1.30
2023-04-11T09:08:09.169Z,1.60
2023-04-11T09:10:37.450Z,1.57
2023-04-11T09:13:21.315Z,1.73
2023-04-11T09:15:48.867Z,1.67
2023-04-11T09:18:35.579Z,3.43
2023-04-11T09:21:10.781Z,1.50
2023-04-11T09:23:38.324Z,1.50
2023-04-11T09:26:06.672Z,1.80
2023-04-11T09:28:53.446Z,1.47
2023-04-11T09:31:21.988Z,1.70
2023-04-11T09:33:59.570Z,1.87
2023-04-11T09:36:27.264Z,1.80
2023-04-11T09:38:54.438Z,2.13
2023-04-11T09:41:34.787Z,1.30
2023-04-11T09:44:02.345Z,1.30
2023-04-11T09:46:29.300Z,1.90
2023-04-11T09:48:56.477Z,1.70
2023-04-11T09:51:35.649Z,1.73
2023-04-11T09:54:05.254Z,2.10
2023-04-11T09:56:34.341Z,1.43
2023-04-11T09:59:03.216Z,2.10
2023-04-11T10:01:30.115Z,1.60
2023-04-11T10:03:57.793Z,1.47
2023-04-11T10:06:31.886Z,1.87
2023-04-11T10:09:11.169Z,2.20
2023-04-11T10:11:42.965Z,1.40
2023-04-11T10:14:29.756Z,2.00
2023-04-11T10:17:22.910Z,2.00
2023-04-11T10:19:56.322Z,1.33
2023-04-11T10:22:41.800Z,1.50
2023-04-11T10:25:19.706Z,1.80
2023-04-11T10:27:48.708Z,1.57
2023-04-11T10:30:15.868Z,2.07
2023-04-11T10:33:12.588Z,1.63
2023-04-11T10:36:06.711Z,1.90
2023-04-11T10:38:48.632Z,1.50
2023-04-11T10:41:31.789Z,2.20
2023-04-11T10:44:23.122Z,2.00
2023-04-11T10:46:56.117Z,2.37
2023-04-11T10:49:33.574Z,1.50
2023-04-11T10:52:20.624Z,1.83
2023-04-11T10:54:48.724Z,2.00
2023-04-11T10:57:18.323Z,1.63
2023-04-11T10:59:51.462Z,1.23
2023-04-11T11:02:19.908Z,1.13
2023-04-11T11:04:47.349Z,1.70
2023-04-11T11:07:18.771Z,1.10
2023-04-11T11:09:51.393Z,1.70
2023-04-11T11:12:18.361Z,1.43
2023-04-11T11:14:46.533Z,1.30
2023-04-11T11:17:14.825Z,1.43
2023-04-11T11:19:45.328Z,1.27
2023-04-11T11:22:25.488Z,1.60
2023-04-11T11:24:52.864Z,1.93
2023-04-11T11:27:24.314Z,1.67
2023-04-11T11:29:51.695Z,1.47
2023-04-11T11:32:29.163Z,1.40
2023-04-11T11:34:57.688Z,2.37
2023-04-11T11:37:24.837Z,1.40
2023-04-11T11:39:52.000Z,1.80
2023-04-11T11:42:18.990Z,1.40
2023-04-11T11:44:46.011Z,1.60
2023-04-11T11:47:17.666Z,1.80
2023-04-11T11:49:52.116Z,1.63
2023-04-11T11:52:34.392Z,1.80
2023-04-11T11:55:03.289Z,1.50
2023-04-11T11:57:30.100Z,1.90
2023-04-11T11:59:58.020Z,1.90
2023-04-11T12:02:28.989Z,1.77
2023-04-11T12:05:00.796Z,1.93
2023-04-11T12:07:34.341Z,1.60
2023-04-11T12:10:06.361Z,1.40
2023-04-11T12:12:37.314Z,1.53
2023-04-11T12:15:10.481Z,1.70
2023-04-11T12:17:38.115Z,1.70
2023-04-11T12:20:10.564Z,1.60
2023-04-11T12:22:38.105Z,1.90
2023-04-11T12:25:15.385Z,1.73
2023-04-11T12:27:44.279Z,1.43
2023-04-11T12:30:13.295Z,1.30
2023-04-11T12:32:40.040Z,1.60
2023-04-11T12:35:07.781Z,1.60
2023-04-11T12:37:34.729Z,2.00
2023-04-11T12:40:01.762Z,1.40
2023-04-11T12:42:28.535Z,1.83
2023-04-11T12:44:55.553Z,1.57
2023-04-11T12:47:22.438Z,1.50
2023-04-11T12:49:49.238Z,1.50
2023-04-11T12:52:16.352Z,1.10
2023-04-11T12:54:43.196Z,1.77
2023-04-11T12:57:12.379Z,2.30
2023-04-11T12:59:39.471Z,1.33
2023-04-11T13:02:06.545Z,1.53
2023-04-11T13:04:33.535Z,1.83
2023-04-11T13:07:01.960Z,1.73
2023-04-11T13:09:31.974Z,1.93
2023-04-11T13:11:59.539Z,1.80
2023-04-11T13:14:26.544Z,1.43
2023-04-11T13:16:53.434Z,1.37
2023-04-11T13:19:21.754Z,1.50
2023-04-11T13:21:49.169Z,2.50
2023-04-11T13:24:16.525Z,1.50
2023-04-11T13:26:44.938Z,1.63
2023-04-11T13:29:14.275Z,1.97
2023-04-11T13:31:41.094Z,2.63
2023-04-11T13:34:08.022Z,2.17
2023-04-11T13:36:35.474Z,1.60
2023-04-11T13:39:02.361Z,1.87
2023-04-11T13:42:10.022Z,1.30
2023-04-11T13:44:36.841Z,2.10
2023-04-11T13:47:03.845Z,2.03
2023-04-11T13:49:30.699Z,1.53
2023-04-11T13:51:57.612Z,1.77
2023-04-11T13:54:24.465Z,2.60
2023-04-11T13:56:51.199Z,2.60
2023-04-11T13:59:17.957Z,1.60
2023-04-11T14:01:45.314Z,10.43
2023-04-11T14:04:12.396Z,3.87
2023-04-11T14:06:39.944Z,2.10
2023-04-11T14:09:07.186Z,2.23
2023-04-11T14:11:33.970Z,1.40
2023-04-11T14:14:00.725Z,1.80
2023-04-11T14:16:27.479Z,1.53
2023-04-11T14:18:54.259Z,1.30
2023-04-11T14:21:22.200Z,1.90
2023-04-11T14:23:49.030Z,1.67
2023-04-11T14:26:15.752Z,1.70
2023-04-11T14:28:42.987Z,1.40
2023-04-11T14:31:09.832Z,1.73
2023-04-11T14:33:36.715Z,1.60
2023-04-11T14:36:03.660Z,1.67
2023-04-11T14:38:30.804Z,1.70
2023-04-11T14:40:57.566Z,1.30
2023-04-11T14:43:24.288Z,1.30
2023-04-11T14:45:55.644Z,1.57
2023-04-11T14:48:22.370Z,1.63
2023-04-11T14:50:49.114Z,1.70
2023-04-11T14:53:16.696Z,1.70
2023-04-11T14:55:44.631Z,1.60
2023-04-11T14:58:11.539Z,1.57
2023-04-11T15:00:38.342Z,1.73
2023-04-11T15:03:05.289Z,1.80
2023-04-11T15:05:32.157Z,2.07
2023-04-11T15:07:58.941Z,1.83
2023-04-11T15:10:26.443Z,2.00
2023-04-11T15:12:53.649Z,1.73
2023-04-11T15:15:20.473Z,1.57
2023-04-11T15:17:48.983Z,1.90
2023-04-11T15:20:16.901Z,2.10
2023-04-11T15:22:45.878Z,1.43
2023-04-11T15:25:14.722Z,1.60
2023-04-11T15:27:42.200Z,2.00
2023-04-11T15:30:10.393Z,1.47
2023-04-11T15:32:43.408Z,1.30
2023-04-11T15:35:10.669Z,1.47
2023-04-11T15:37:37.350Z,2.23
2023-04-11T15:40:07.823Z,1.60
2023-04-11T15:42:35.441Z,1.43
2023-04-11T15:45:02.763Z,1.53
2023-04-11T15:47:30.416Z,1.60
2023-04-11T15:49:59.027Z,2.10
2023-04-11T15:52:26.442Z,1.50
2023-04-11T15:54:53.264Z,1.93
2023-04-11T15:57:20.069Z,1.77
2023-04-11T15:59:46.952Z,1.50
2023-04-11T16:02:15.165Z,1.70
2023-04-11T16:04:47.038Z,2.50
2023-04-11T16:07:18.312Z,3.40
2023-04-11T16:09:45.322Z,2.63
2023-04-11T16:12:12.222Z,4.47
2023-04-11T16:14:39.079Z,1.73
2023-04-11T16:17:05.860Z,1.70
2023-04-11T16:19:32.598Z,2.47
2023-04-11T16:21:59.320Z,2.30
2023-04-11T16:24:29.071Z,2.70
2023-04-11T16:26:57.261Z,2.60
2023-04-11T16:29:24.941Z,2.20
2023-04-11T16:31:51.816Z,5.07
2023-04-11T16:34:18.737Z,2.53
2023-04-11T16:36:45.807Z,3.47
2023-04-11T16:39:12.582Z,1.93
2023-04-11T16:41:39.346Z,2.27
2023-04-11T16:44:11.386Z,2.10
2023-04-11T16:46:42.029Z,1.90
2023-04-11T16:49:09.657Z,2.20
2023-04-11T16:51:37.082Z,1.80
2023-04-11T16:54:09.599Z,3.63
2023-04-11T16:56:37.333Z,3.17
2023-04-11T16:59:05.113Z,3.37
2023-04-11T17:01:32.154Z,1.97
2023-04-11T17:03:59.301Z,2.67
2023-04-11T17:06:27.211Z,3.20
2023-04-11T17:08:54.132Z,3.50
2023-04-11T17:11:20.888Z,3.03
2023-04-11T17:13:49.443Z,4.13
2023-04-11T17:16:17.617Z,3.30
2023-04-11T17:18:44.352Z,2.63
2023-04-11T17:21:11.154Z,2.33
2023-04-11T17:23:42.956Z,3.17
2023-04-11T17:26:10.057Z,3.03
2023-04-11T17:28:36.885Z,4.33
2023-04-11T17:31:14.003Z,7.70
2023-04-11T17:33:41.888Z,5.80
2023-04-11T17:36:10.770Z,4.00
2023-04-11T17:38:38.197Z,2.00
2023-04-11T17:41:14.456Z,1.73
2023-04-11T17:43:42.308Z,3.97
2023-04-11T17:46:09.436Z,3.90
2023-04-11T17:48:36.697Z,2.67
2023-04-11T17:51:05.365Z,1.40
2023-04-11T17:53:32.863Z,1.80
2023-04-11T17:56:04.483Z,2.50
2023-04-11T17:58:31.834Z,1.70
2023-04-11T18:00:58.623Z,3.50
2023-04-11T18:03:26.274Z,4.40
2023-04-11T18:05:54.358Z,3.63
2023-04-11T18:08:29.869Z,6.07
2023-04-11T18:11:00.221Z,2.43
2023-04-11T18:13:27.521Z,1.80
2023-04-11T18:15:54.565Z,1.60
2023-04-11T18:18:21.467Z,2.10
2023-04-11T18:20:48.395Z,2.13
2023-04-11T18:23:15.247Z,3.27
2023-04-11T18:25:41.987Z,6.20
2023-04-11T18:28:08.715Z,3.50
2023-04-11T18:30:35.659Z,2.30
2023-04-11T18:33:02.507Z,1.90
2023-04-11T18:35:29.459Z,1.67
2023-04-11T18:37:56.682Z,1.60
2023-04-11T18:40:23.460Z,1.60
2023-04-11T18:42:53.282Z,2.00
2023-04-11T18:45:21.930Z,3.47
2023-04-11T18:47:49.272Z,5.30
2023-04-11T18:50:17.377Z,4.53
2023-04-11T18:52:45.662Z,3.50
2023-04-11T18:55:14.512Z,3.20
2023-04-11T18:57:43.321Z,2.80
2023-04-11T19:00:18.543Z,3.60
2023-04-11T19:02:46.741Z,3.90
2023-04-11T19:05:14.582Z,2.70
2023-04-11T19:07:42.790Z,2.87
2023-04-11T19:10:11.190Z,2.47
2023-04-11T19:12:38.454Z,2.10
2023-04-11T19:15:07.650Z,2.80
2023-04-11T19:17:36.197Z,3.07
2023-04-11T19:20:06.844Z,2.80
2023-04-11T19:22:34.591Z,1.90
2023-04-11T19:25:01.424Z,2.50
2023-04-11T19:27:28.224Z,2.50
2023-04-11T19:29:55.021Z,2.00
2023-04-11T19:32:21.876Z,5.87
2023-04-11T19:34:49.590Z,3.70
2023-04-11T19:37:19.207Z,3.90
2023-04-11T19:39:45.999Z,2.70
2023-04-11T19:42:12.860Z,2.73
2023-04-11T19:44:39.935Z,3.47
2023-04-11T19:47:06.849Z,3.53
2023-04-11T19:49:33.657Z,3.33
2023-04-11T19:52:00.421Z,2.80
2023-04-11T19:54:27.213Z,2.70
2023-04-11T19:56:54.191Z,2.80
2023-04-11T19:59:21.014Z,4.00
2023-04-11T20:01:47.878Z,3.40
2023-04-11T20:04:15.841Z,6.05
2023-04-11T20:06:43.987Z,4.68
2023-04-11T20:09:11.717Z,4.78
2023-04-11T20:11:39.442Z,5.05
2023-04-11T20:14:07.159Z,5.20
2023-04-11T20:16:34.032Z,4.10
2023-04-11T20:19:01.798Z,2.53
2023-04-11T20:21:28.651Z,2.20
2023-04-11T20:23:55.578Z,2.53
2023-04-11T20:26:22.905Z,2.73
2023-04-11T20:28:53.079Z,5.25
2023-04-11T20:31:19.899Z,2.63
2023-04-11T20:33:46.917Z,3.13
2023-04-11T20:36:15.514Z,2.90
2023-04-11T20:38:42.575Z,2.40
2023-04-11T20:41:09.413Z,2.97
2023-04-11T20:43:41.954Z,1.70
2023-04-11T20:46:08.998Z,2.15
2023-04-11T20:48:35.979Z,2.95
2023-04-11T20:51:02.834Z,3.17
2023-04-11T20:53:29.632Z,2.83
2023-04-11T20:55:56.398Z,3.47
2023-04-11T20:58:23.205Z,2.38
2023-04-11T21:00:49.938Z,2.13
2023-04-11T21:03:16.957Z,3.40
2023-04-11T21:05:44.361Z,2.22
2023-04-11T21:08:12.037Z,2.72
2023-04-11T21:10:38.939Z,1.83
2023-04-11T21:13:05.666Z,2.53
2023-04-11T21:15:34.511Z,2.25
2023-04-11T21:18:01.336Z,2.60
2023-04-11T21:20:28.720Z,2.28
2023-04-11T21:22:55.709Z,1.90
2023-04-11T21:25:23.827Z,2.80
2023-04-11T21:27:50.655Z,7.50
2023-04-11T21:30:17.374Z,5.38
2023-04-11T21:32:44.276Z,4.05
2023-04-11T21:35:11.983Z,2.40
2023-04-11T21:37:39.359Z,2.45
2023-04-11T21:40:06.830Z,2.47
2023-04-11T21:42:33.560Z,2.40
2023-04-11T21:45:00.451Z,2.13
2023-04-11T21:47:27.276Z,2.60
2023-04-11T21:49:54.020Z,2.10
2023-04-11T21:52:20.830Z,2.33
2023-04-11T21:54:47.604Z,2.60
2023-04-11T21:57:14.349Z,2.40
2023-04-11T21:59:41.123Z,3.95
2023-04-11T22:02:07.978Z,3.17
2023-04-11T22:04:41.297Z,3.78
2023-04-11T22:07:15.599Z,3.78
2023-04-11T22:09:46.787Z,3.65
2023-04-11T22:12:17.664Z,3.38
2023-04-11T22:14:44.440Z,3.25
2023-04-11T22:17:11.305Z,3.15
2023-04-11T22:19:37.992Z,3.00
2023-04-11T22:22:08.279Z,2.10
2023-04-11T22:24:38.179Z,2.40
2023-04-11T22:27:06.207Z,2.45
2023-04-11T22:29:34.391Z,2.78
2023-04-11T22:32:03.838Z,2.42
2023-04-11T22:34:31.079Z,2.60
2023-04-11T22:36:57.950Z,2.30
2023-04-11T22:39:25.505Z,2.33
2023-04-11T22:41:53.366Z,2.90
2023-04-11T22:44:20.830Z,2.85
2023-04-11T22:47:06.080Z,2.75
2023-04-11T22:49:40.726Z,3.10
2023-04-11T22:52:15.137Z,2.65
2023-04-11T22:54:43.181Z,3.72
2023-04-11T22:57:10.293Z,2.75
2023-04-11T22:59:37.097Z,3.92
2023-04-11T23:02:03.986Z,3.45
2023-04-11T23:04:32.137Z,3.38
2023-04-11T23:06:59.615Z,2.58
2023-04-11T23:09:28.045Z,2.40
2023-04-11T23:11:54.789Z,2.72
2023-04-11T23:14:22.309Z,2.65
2023-04-11T23:16:49.240Z,2.72
2023-04-11T23:19:17.168Z,2.42
2023-04-11T23:21:44.764Z,3.35
2023-04-11T23:24:11.556Z,2.67
2023-04-11T23:26:38.294Z,2.95
2023-04-11T23:29:05.060Z,3.00
2023-04-11T23:31:32.613Z,2.30
2023-04-11T23:34:00.335Z,2.25
2023-04-11T23:36:27.827Z,1.90
2023-04-11T23:38:54.707Z,1.98
2023-04-11T23:41:21.694Z,1.67
2023-04-11T23:43:48.455Z,1.80
2023-04-11T23:46:16.966Z,2.08
2023-04-11T23:48:44.374Z,2.00
2023-04-11T23:51:11.412Z,1.92
2023-04-11T23:53:38.163Z,2.30
2023-04-11T23:56:05.268Z,2.80
2023-04-11T23:58:33.712Z,2.90
